Nearby METAR Reports

 

ENCN - Kristiansand/Kje, Norway
Distance from station: N 17km
aktuell: 21/10/2019 21:50
stark bewölkt
stark bewölkt
 Wind von varies
Wind: varies 4 km/h
Temperatur: 8°C
Taupunkt: 7°C
Luftfeuchte: 93%
Luftdruck: 1018 hPa
Clouds: stark bewölkt
Visibility: 10 km
Cloud details: Few Clouds 579 m
stark bewölkt 1097 m
2019/10/21 19:50 ENCN 211950Z VRB02KT 9999 FEW019 BKN036 08/07 Q1018
EKSN - Sindal Airport, Denmark
Distance from station: OSO 145km
aktuell: 21/10/2019 15:50
NOT Current
stark bewölkt
stark bewölkt
 Wind von varies
Wind: varies 6 km/h
Temperatur: 8°C
Taupunkt: 6°C
Luftfeuchte: 87%
Luftdruck: 1020 hPa
Clouds: stark bewölkt
Visibility: 10 km
Cloud details: stark bewölkt 427 m
2019/10/21 13:50 EKSN 211350Z VRB03KT 9999 BKN014 08/06 Q1020
 
EKYT - Alborg, Denmark
Distance from station: SO 153km
aktuell: 21/10/2019 21:50
Few Clouds
Few Clouds
 Wind von calm
Wind: Windstill
Temperatur: 7°C
Taupunkt: 6°C
Luftfeuchte: 93%
Luftdruck: 1019 hPa
Clouds: Few Clouds
Visibility: 10 km
Cloud details: Few Clouds 396 m
2019/10/21 19:50 EKYT 211950Z AUTO 00000KT 9999 FEW013/// 07/06 Q1019
ENSN - Skien/Geiterygge, Norway
Distance from station: NO 153km
aktuell: 09/11/2015 09:50
NOT Current
klar
klar
 Wind von SSW
Wind: SSW 19 km/h, Windböen: 41 km/h
Temperatur: 7°C
Wind Chill: 4°C
Taupunkt: 3°C
Luftfeuchte: 76%
Luftdruck: 1000 hPa
Zusammenfassung: klar
Visibility: greater than 10 km
2015/11/09 08:50 ENSN 090850Z 20010G22KT 150V240 CAVOK 07/03 Q1000
 
ENZV - Stavanger/Sola(A, Norway
Distance from station: NW 166km
aktuell: 21/10/2019 21:50
stark bewölkt
stark bewölkt
 Wind von S
Wind: S 11 km/h
Temperatur: 8°C
Wind Chill: 6°C
Taupunkt: 7°C
Luftfeuchte: 93%
Luftdruck: 1018 hPa
Clouds: stark bewölkt
Visibility: 10 km
Cloud details: Few Clouds 610 m
stark bewölkt 853 m
2019/10/21 19:50 ENZV 211950Z 18006KT 9999 FEW020 BKN028 08/07 Q1018
ENNO - Notodden, Norway
Distance from station: NNO 182km
aktuell: 21/10/2019 18:50
NOT Current
stark bewölkt
stark bewölkt
 Wind von WNW
Wind: WNW 9 km/h
Temperatur: 5°C
Wind Chill: 3°C
Taupunkt: 3°C
Luftfeuchte: 87%
Luftdruck: 1018 hPa
Clouds: stark bewölkt
Visibility: 10 km
Cloud details: stark bewölkt 396 m
2019/10/21 16:50 ENNO 211650Z 30005KT 9999 BKN013 05/03 Q1018
 
ENTO - Torp (civ/Nor-Af, Norway
Distance from station: NO 183km
aktuell: 21/10/2019 21:50
geschlossene Wolkendecke
geschlossene Wolkendecke
 Wind von SSW
Wind: SSW 17 km/h
Temperatur: 7°C
Wind Chill: 4°C
Taupunkt: 5°C
Luftfeuchte: 87%
Luftdruck: 1017 hPa
Clouds: geschlossene Wolkendecke
Visibility: 10 km
Cloud details: teilweise bewölkt 671 m
geschlossene Wolkendecke 823 m
2019/10/21 19:50 ENTO 211950Z 21009KT 9999 SCT022 OVC027 07/05 Q1017 NOSIG
EKKA - Karup (dan-Afb), Denmark
Distance from station: SSO 209km
aktuell: 21/10/2019 21:50
Light drizzle, stark bewölkt
Light drizzle, stark bewölkt
 Wind von NNO
Wind: NNO 11 km/h
Temperatur: 9°C
Wind Chill: 7°C
Taupunkt: 8°C
Luftfeuchte: 94%
Luftdruck: 1019 hPa
Zusammenfassung: Light Drizzle
Clouds: stark bewölkt
Visibility: 3 km
Cloud details: teilweise bewölkt 91 m
stark bewölkt 457 m
2019/10/21 19:50 EKKA 211950Z AUTO 03006KT 2800 -DZ SCT003/// BKN015/// 09/08 Q1019 TEMPO 2500 -RADZ BR BKN003
 
ENHD - Haugesund/Karmoy, Norway
Distance from station: NW 216km
aktuell: 21/10/2019 21:50
stark bewölkt
stark bewölkt
 Wind von SW
Wind: SW 26 km/h
Temperatur: 10°C
Wind Chill: 7°C
Taupunkt: 4°C
Luftfeuchte: 67%
Luftdruck: 1017 hPa
Clouds: stark bewölkt
Visibility: 10 km
Cloud details: Few Clouds 823 m
stark bewölkt 945 m
2019/10/21 19:50 ENHD 211950Z 22014KT 9999 FEW027 BKN031 10/04 Q1017
ENRY - Rygge (nor-Afb), Norway
Distance from station: NO 216km
aktuell: 21/10/2019 21:50
geschlossene Wolkendecke
geschlossene Wolkendecke
 Wind von SO
Wind: SO 11 km/h
Temperatur: 5°C
Wind Chill: 2°C
Taupunkt: 4°C
Luftfeuchte: 93%
Luftdruck: 1017 hPa
Clouds: geschlossene Wolkendecke
Visibility: 10 km
Cloud details: Few Clouds 274 m
teilweise bewölkt 427 m
geschlossene Wolkendecke 579 m
2019/10/21 19:50 ENRY 211950Z AUTO 14006KT 9999NDV FEW009/// SCT014/// OVC019/// 05/04 Q1017
 
ESGP - Goteborg/Save (a, Sweden
Distance from station: O 230km
aktuell: 02/01/2017 11:20
NOT Current
klar
klar
 Wind von calm
Wind: Windstill
Temperatur: -2°C
Taupunkt: -4°C
Luftfeuchte: 86%
Luftdruck: 1012 hPa
Clouds: klar
Visibility: 10 km
2017/01/02 10:20 ESGP 021020Z AUTO 00000KT 9999 NCD M02/M04 Q1012
EKVJ - Stauning Airport, Denmark
Distance from station: S 233km
aktuell: 21/10/2019 15:50
NOT Current
sehr leichter Niederschlag, Drizzle, stark bewölkt
sehr leichter Niederschlag, Drizzle, stark bewölkt
 Wind von NO
Wind: NO 4 km/h
Temperatur: 10°C
Taupunkt: 10°C
Luftfeuchte: 100%
Luftdruck: 1018 hPa
Zusammenfassung: sehr leichter Niederschlag, Drizzle
Clouds: stark bewölkt
Visibility: 7 km
Cloud details: Few Clouds 244 m
teilweise bewölkt 1524 m
stark bewölkt 3048 m
2019/10/21 13:50 EKVJ 211350Z 05002KT 7000 -RADZ FEW008 SCT050 BKN100 10/10 Q1018
 
ENSO - Stord/Soerstokke, Norway
Distance from station: NW 246km
aktuell: 21/10/2019 18:50
NOT Current
stark bewölkt
stark bewölkt
 Wind von SSW
Wind: SSW 11 km/h
Temperatur: 8°C
Wind Chill: 6°C
Taupunkt: 3°C
Luftfeuchte: 71%
Luftdruck: 1018 hPa
Clouds: stark bewölkt
Visibility: 10 km
Cloud details: Few Clouds 914 m
stark bewölkt 1219 m
2019/10/21 16:50 ENSO 211650Z 21006KT 9999 FEW030 BKN040 08/03 Q1018
EKAH - Tirstrup (civ/Mi, Denmark
Distance from station: SO 252km
aktuell: 21/10/2019 21:50
Mist, stark bewölkt
Mist, stark bewölkt
 Wind von N
Wind: N 4 km/h
Temperatur: 10°C
Taupunkt: 10°C
Luftfeuchte: 100%
Luftdruck: 1019 hPa
Zusammenfassung: Mist
Clouds: stark bewölkt
Visibility: 4 km
Cloud details: stark bewölkt 61 m
stark bewölkt 671 m
2019/10/21 19:50 EKAH 211950Z AUTO 01002KT 3500NDV BR BKN002/// BKN022/// 10/10 Q1019
 
ESGT - Trollhattan (pvt, Sweden
Distance from station: O 255km
aktuell: 21/10/2019 21:50
geschlossene Wolkendecke
geschlossene Wolkendecke
 Wind von W
Wind: W 9 km/h
Temperatur: 6°C
Wind Chill: 4°C
Taupunkt: 5°C
Luftfeuchte: 93%
Luftdruck: 1019 hPa
Clouds: geschlossene Wolkendecke
Visibility: 10 km
Cloud details: geschlossene Wolkendecke 244 m
2019/10/21 19:50 ESGT 211950Z AUTO 27005KT 250V310 9999 OVC008/// 06/05 Q1019
ESGG - Goteborg/Landvet, Sweden
Distance from station: O 257km
aktuell: 21/10/2019 21:50
Fog, geschlossene Wolkendecke
Fog, geschlossene Wolkendecke
 Wind von varies
Wind: varies 4 km/h
Temperatur: 7°C
Taupunkt: 6°C
Luftfeuchte: 93%
Luftdruck: 1018 hPa
Zusammenfassung: Fog
Clouds: geschlossene Wolkendecke
Visibility: 0 km
Cloud details: geschlossene Wolkendecke 30 m
2019/10/21 19:50 ESGG 211950Z VRB02KT 0450 R03/1100D R21/P1500D FG OVC001 07/06 Q1018
 
EKBI - Billund Airport, Denmark
Distance from station: SSO 269km
aktuell: 21/10/2019 21:50
geschlossene Wolkendecke
geschlossene Wolkendecke
 Wind von NNO
Wind: NNO 7 km/h
Temperatur: 10°C
Wind Chill: 9°C
Taupunkt: 9°C
Luftfeuchte: 94%
Luftdruck: 1018 hPa
Clouds: geschlossene Wolkendecke
Visibility: 5 km
Cloud details: geschlossene Wolkendecke 152 m
2019/10/21 19:50 EKBI 211950Z AUTO 03004KT 5000 OVC005/// 10/09 Q1018
EKHN - Horns Rev B Heli, Denmark
Distance from station: S 274km
aktuell: 09/08/2016 14:20
NOT Current
Few Clouds
Few Clouds
 Wind von WNW
Wind: WNW 50 km/h, Windböen: 72 km/h
Temperatur: 14°C
Taupunkt: 10°C
Luftfeuchte: 77%
Luftdruck: 1018 hPa
Clouds: Few Clouds
Visibility: 10 km
Cloud details: Few Clouds 1158 m
Few Clouds 2438 m
2016/08/09 12:20 EKHN 091220Z AUTO 29027G39KT 270V340 9999NDV FEW038/// FEW080/// 14/10 Q1018
 
ESIB - Satenas (swe-Afb, Sweden
Distance from station: O 277km
aktuell: 21/10/2019 21:50
geschlossene Wolkendecke
geschlossene Wolkendecke
 Wind von W
Wind: W 15 km/h
Temperatur: 7°C
Wind Chill: 4°C
Taupunkt: 6°C
Luftfeuchte: 93%
Luftdruck: 1018 hPa
Clouds: geschlossene Wolkendecke
Visibility: 10 km
Cloud details: geschlossene Wolkendecke 274 m
2019/10/21 19:50 ESIB 211950Z AUTO 27008KT 9999 OVC009/// 07/06 Q1018
EKHR - Horns Rev B Heli, Denmark
Distance from station: S 282km
aktuell: 04/10/2016 06:20
NOT Current
klar
klar
 Wind von O
Wind: O 4 km/h
Temperatur: 11°C
Taupunkt: -49°C
Luftfeuchte: 0%
Luftdruck: 1038 hPa
Clouds: klar
Visibility: 10 km
2016/10/04 04:20 EKHR 040420Z AUTO 08002KT 9999NDV NCD 11/M49 Q1038